createdAt,value
2018-09-11T00:00:45.998Z,14.50
2018-09-11T00:03:14.433Z,14.40
2018-09-11T00:05:42.861Z,14.30
2018-09-11T00:08:11.314Z,14.30
2018-09-11T00:10:39.789Z,14.40
2018-09-11T00:13:08.197Z,14.40
2018-09-11T00:15:36.657Z,14.40
2018-09-11T00:18:05.137Z,14.40
2018-09-11T00:20:33.585Z,14.40
2018-09-11T00:23:02.005Z,14.30
2018-09-11T00:25:30.434Z,14.30
2018-09-11T00:27:58.856Z,14.20
2018-09-11T00:30:27.305Z,14.20
2018-09-11T00:32:55.718Z,14.10
2018-09-11T00:35:24.159Z,14.10
2018-09-11T00:37:52.581Z,14.00
2018-09-11T00:40:21.049Z,14.00
2018-09-11T00:42:49.476Z,13.90
2018-09-11T00:45:17.985Z,13.80
2018-09-11T00:47:46.411Z,13.90
2018-09-11T00:50:14.865Z,13.90
2018-09-11T00:52:43.271Z,13.90
2018-09-11T00:55:11.748Z,13.90
2018-09-11T00:57:40.175Z,13.90
2018-09-11T01:00:08.673Z,13.80
2018-09-11T01:02:37.090Z,13.80
2018-09-11T01:05:05.583Z,13.70
2018-09-11T01:07:35.226Z,13.70
2018-09-11T01:10:05.436Z,13.60
2018-09-11T01:12:33.934Z,13.50
2018-09-11T01:15:02.452Z,13.50
2018-09-11T01:17:30.862Z,13.40
2018-09-11T01:19:59.309Z,13.40
2018-09-11T01:22:27.819Z,13.40
2018-09-11T01:24:56.520Z,13.40
2018-09-11T01:27:24.989Z,13.30
2018-09-11T01:29:53.426Z,13.20
2018-09-11T01:32:21.886Z,13.20
2018-09-11T01:34:50.309Z,13.20
2018-09-11T01:37:18.705Z,13.20
2018-09-11T01:39:47.142Z,13.10
2018-09-11T01:42:15.558Z,13.10
2018-09-11T01:44:43.990Z,13.10
2018-09-11T01:47:12.437Z,13.10
2018-09-11T01:49:40.869Z,13.10
2018-09-11T01:52:09.274Z,13.10
2018-09-11T01:54:37.718Z,13.00
2018-09-11T01:57:06.648Z,13.00
2018-09-11T01:59:35.073Z,13.00
2018-09-11T02:02:03.537Z,13.00
2018-09-11T02:04:31.977Z,13.00
2018-09-11T02:07:00.396Z,12.90
2018-09-11T02:09:28.905Z,12.90
2018-09-11T02:11:57.337Z,12.90
2018-09-11T02:14:25.803Z,12.90
2018-09-11T02:16:54.226Z,12.80
2018-09-11T02:19:22.651Z,12.80
2018-09-11T02:21:51.182Z,12.70
2018-09-11T02:24:19.677Z,12.60
2018-09-11T02:26:48.112Z,12.60
2018-09-11T02:29:16.547Z,12.60
2018-09-11T02:31:44.982Z,12.60
2018-09-11T02:34:13.430Z,12.50
2018-09-11T02:36:41.842Z,12.50
2018-09-11T02:39:11.854Z,12.50
2018-09-11T02:41:40.367Z,12.50
2018-09-11T02:44:09.810Z,12.50
2018-09-11T02:46:38.256Z,12.40
2018-09-11T02:49:06.686Z,12.40
2018-09-11T02:51:35.526Z,12.40
2018-09-11T02:54:03.950Z,12.30
2018-09-11T02:56:32.525Z,12.30
2018-09-11T02:59:01.018Z,12.20
2018-09-11T03:01:29.463Z,12.20
2018-09-11T03:03:57.906Z,12.20
2018-09-11T03:06:26.358Z,12.20
2018-09-11T03:08:54.781Z,12.20
2018-09-11T03:11:23.313Z,12.20
2018-09-11T03:13:51.723Z,12.30
2018-09-11T03:16:20.162Z,12.30
2018-09-11T03:18:49.459Z,12.20
2018-09-11T03:21:17.900Z,12.20
2018-09-11T03:23:46.314Z,12.20
2018-09-11T03:26:14.738Z,12.20
2018-09-11T03:28:43.145Z,12.20
2018-09-11T03:31:11.582Z,12.20
2018-09-11T03:33:39.999Z,12.20
2018-09-11T03:36:08.456Z,12.20
2018-09-11T03:38:36.875Z,12.20
2018-09-11T03:41:05.326Z,12.20
2018-09-11T03:43:33.731Z,12.10
2018-09-11T03:46:02.175Z,12.00
2018-09-11T03:48:30.581Z,11.90
2018-09-11T03:50:59.025Z,11.90
2018-09-11T03:53:27.436Z,11.90
2018-09-11T03:55:55.882Z,11.90
2018-09-11T03:58:24.281Z,11.90
2018-09-11T04:00:52.703Z,11.80
2018-09-11T04:03:21.110Z,11.80
2018-09-11T04:05:49.543Z,11.80
2018-09-11T04:08:17.962Z,11.80
2018-09-11T04:10:46.402Z,11.80
2018-09-11T04:13:14.797Z,11.80
2018-09-11T04:15:43.246Z,11.80
2018-09-11T04:18:11.678Z,11.70
2018-09-11T04:20:40.088Z,11.70
2018-09-11T04:23:08.482Z,11.70
2018-09-11T04:25:36.921Z,11.70
2018-09-11T04:28:05.375Z,11.70
2018-09-11T04:30:33.794Z,11.60
2018-09-11T04:33:02.215Z,11.60
2018-09-11T04:35:30.646Z,11.70
2018-09-11T04:37:59.045Z,11.70
2018-09-11T04:40:27.474Z,11.70
2018-09-11T04:42:55.912Z,11.60
2018-09-11T04:45:24.292Z,11.60
2018-09-11T04:47:52.725Z,11.50
2018-09-11T04:50:21.117Z,11.50
2018-09-11T04:52:49.543Z,11.50
2018-09-11T04:55:17.935Z,11.40
2018-09-11T04:57:46.379Z,11.40
2018-09-11T05:00:14.798Z,11.40
2018-09-11T05:02:43.215Z,11.40
2018-09-11T05:05:11.607Z,11.40
2018-09-11T05:07:40.248Z,11.40
2018-09-11T05:10:08.687Z,11.40
2018-09-11T05:12:37.107Z,11.40
2018-09-11T05:15:05.578Z,11.50
2018-09-11T05:17:34.038Z,11.50
2018-09-11T05:20:02.426Z,11.50
2018-09-11T05:22:30.914Z,11.60
2018-09-11T05:24:59.327Z,11.60
2018-09-11T05:27:27.782Z,11.60
2018-09-11T05:29:56.198Z,11.60
2018-09-11T05:32:24.621Z,11.70
2018-09-11T05:34:53.030Z,11.60
2018-09-11T05:37:21.510Z,11.70
2018-09-11T05:39:49.893Z,11.80
2018-09-11T05:42:18.349Z,11.90
2018-09-11T05:44:46.738Z,12.00
2018-09-11T05:47:15.227Z,12.00
2018-09-11T05:49:43.578Z,12.10
2018-09-11T05:52:11.999Z,12.20
2018-09-11T05:54:40.425Z,12.20
2018-09-11T05:57:08.830Z,12.30
2018-09-11T05:59:37.234Z,12.40
2018-09-11T06:02:05.775Z,12.50
2018-09-11T06:04:34.170Z,12.50
2018-09-11T06:07:02.611Z,12.60
2018-09-11T06:09:31.113Z,12.80
2018-09-11T06:11:59.520Z,12.80
2018-09-11T06:14:27.965Z,12.90
2018-09-11T06:16:56.388Z,12.90
2018-09-11T06:19:24.843Z,13.00
2018-09-11T06:21:53.278Z,13.10
2018-09-11T06:24:21.737Z,13.20
2018-09-11T06:26:50.154Z,13.30
2018-09-11T06:29:18.808Z,13.30
2018-09-11T06:31:47.009Z,13.40
2018-09-11T06:34:15.437Z,13.40
2018-09-11T06:36:43.854Z,13.50
2018-09-11T06:39:12.309Z,13.60
2018-09-11T06:41:40.742Z,13.80
2018-09-11T06:44:09.194Z,13.90
2018-09-11T06:46:37.613Z,14.00
2018-09-11T06:49:06.115Z,14.20
2018-09-11T06:51:34.517Z,14.20
2018-09-11T06:54:03.002Z,14.40
2018-09-11T06:56:31.441Z,14.50
2018-09-11T06:58:59.897Z,14.80
2018-09-11T07:01:28.289Z,15.00
2018-09-11T07:03:56.705Z,15.20
2018-09-11T07:06:25.137Z,15.30
2018-09-11T07:08:53.537Z,15.40
2018-09-11T07:11:21.961Z,15.50
2018-09-11T07:13:50.358Z,15.50
2018-09-11T07:16:18.772Z,15.60
2018-09-11T07:18:47.197Z,15.80
2018-09-11T07:21:15.611Z,15.90
2018-09-11T07:23:44.008Z,16.10
2018-09-11T07:26:12.476Z,16.20
2018-09-11T07:28:40.839Z,16.40
2018-09-11T07:31:09.259Z,16.50
2018-09-11T07:33:37.682Z,16.70
2018-09-11T07:36:06.171Z,16.90
2018-09-11T07:38:34.586Z,17.00
2018-09-11T07:41:03.014Z,17.10
2018-09-11T07:43:31.409Z,17.00
2018-09-11T07:45:59.856Z,17.00
2018-09-11T07:48:28.233Z,17.30
2018-09-11T07:50:56.659Z,17.50
2018-09-11T07:53:25.072Z,17.70
2018-09-11T07:55:53.517Z,17.90
2018-09-11T07:58:21.913Z,18.00
2018-09-11T08:00:50.687Z,18.10
2018-09-11T08:03:19.149Z,18.10
2018-09-11T08:05:47.590Z,18.20
2018-09-11T08:08:16.008Z,18.40
2018-09-11T08:10:44.515Z,18.50
2018-09-11T08:13:12.962Z,18.60
2018-09-11T08:15:41.411Z,18.90
2018-09-11T08:18:09.869Z,19.00
2018-09-11T08:20:38.295Z,19.10
2018-09-11T08:23:06.758Z,19.10
2018-09-11T08:25:35.186Z,19.20
2018-09-11T08:28:03.650Z,19.60
2018-09-11T08:30:32.973Z,19.80
2018-09-11T08:33:02.503Z,20.10
2018-09-11T08:35:30.990Z,20.40
2018-09-11T08:37:59.785Z,20.70
2018-09-11T08:40:28.222Z,21.00
2018-09-11T08:42:56.657Z,21.00
2018-09-11T08:45:25.079Z,20.80
2018-09-11T08:47:53.518Z,20.90
2018-09-11T08:50:21.949Z,20.90
2018-09-11T08:52:50.468Z,20.90
2018-09-11T08:55:18.830Z,21.30
2018-09-11T08:57:47.284Z,21.50
2018-09-11T09:00:15.710Z,21.50
2018-09-11T09:02:44.175Z,21.60
2018-09-11T09:05:12.586Z,21.40
2018-09-11T09:07:41.049Z,21.50
2018-09-11T09:10:09.563Z,21.70
2018-09-11T09:12:37.947Z,22.30
2018-09-11T09:15:06.398Z,22.40
2018-09-11T09:17:34.829Z,22.40
2018-09-11T09:20:03.269Z,22.70
2018-09-11T09:22:31.749Z,22.70
2018-09-11T09:25:00.466Z,23.30
2018-09-11T09:27:28.938Z,23.60
2018-09-11T09:29:57.344Z,24.10
2018-09-11T09:32:25.793Z,24.50
2018-09-11T09:34:54.478Z,24.20
2018-09-11T09:37:22.961Z,24.50
2018-09-11T09:39:51.396Z,24.80
2018-09-11T09:42:19.852Z,24.90
2018-09-11T09:44:48.262Z,24.90
2018-09-11T09:47:16.686Z,25.60
2018-09-11T09:49:45.108Z,25.60
2018-09-11T09:52:13.537Z,25.20
2018-09-11T09:54:41.953Z,25.10
2018-09-11T09:57:10.401Z,24.90
2018-09-11T09:59:38.827Z,25.60
2018-09-11T10:02:12.638Z,25.20
2018-09-11T10:04:41.094Z,25.40
2018-09-11T10:07:09.544Z,25.20
2018-09-11T10:09:37.977Z,25.80
2018-09-11T10:12:06.563Z,25.60
2018-09-11T10:14:34.969Z,25.70
2018-09-11T10:17:03.410Z,26.20
2018-09-11T10:19:31.822Z,25.10
2018-09-11T10:22:00.774Z,25.60
2018-09-11T10:24:29.366Z,26.30
2018-09-11T10:26:59.159Z,26.30
2018-09-11T10:29:27.667Z,26.40
2018-09-11T10:31:56.082Z,26.80
2018-09-11T10:34:24.903Z,27.10
2018-09-11T10:36:53.318Z,27.00
2018-09-11T10:39:21.842Z,26.50
2018-09-11T10:41:50.261Z,26.40
2018-09-11T10:44:18.690Z,27.20
2018-09-11T10:46:47.091Z,27.00
2018-09-11T10:49:15.522Z,26.90
2018-09-11T10:51:43.945Z,28.00
2018-09-11T10:54:12.394Z,28.00
2018-09-11T10:56:40.809Z,28.90
2018-09-11T10:59:09.251Z,28.50
2018-09-11T11:01:37.663Z,28.80
2018-09-11T11:04:06.328Z,28.10
2018-09-11T11:06:34.741Z,28.90
2018-09-11T11:09:03.366Z,28.40
2018-09-11T11:11:31.782Z,28.70
2018-09-11T11:14:00.215Z,30.10
2018-09-11T11:16:28.605Z,29.10
2018-09-11T11:18:57.049Z,30.10
2018-09-11T11:21:25.443Z,29.60
2018-09-11T11:23:53.862Z,29.20
2018-09-11T11:26:22.248Z,29.40
2018-09-11T11:28:50.666Z,30.00
2018-09-11T11:31:19.114Z,29.70
2018-09-11T11:33:47.538Z,29.90
2018-09-11T11:36:15.994Z,29.60
2018-09-11T11:38:44.415Z,28.90
2018-09-11T11:41:12.810Z,28.70
2018-09-11T11:43:41.226Z,28.80
2018-09-11T11:46:09.609Z,28.90
2018-09-11T11:48:38.043Z,29.40
2018-09-11T11:51:06.478Z,30.00
2018-09-11T11:53:34.894Z,29.50
2018-09-11T11:56:03.287Z,28.90
2018-09-11T11:58:31.709Z,29.20
2018-09-11T12:01:00.122Z,29.60
2018-09-11T12:03:28.577Z,29.40
2018-09-11T12:05:56.982Z,30.00
2018-09-11T12:08:25.409Z,30.10
2018-09-11T12:10:53.825Z,30.70
2018-09-11T12:13:22.250Z,31.00
2018-09-11T12:15:50.832Z,31.10
2018-09-11T12:18:19.326Z,31.20
2018-09-11T12:20:47.746Z,30.90
2018-09-11T12:23:16.287Z,31.40
2018-09-11T12:25:44.770Z,31.00
2018-09-11T12:28:13.186Z,30.20
2018-09-11T12:30:41.645Z,31.10
2018-09-11T12:33:10.119Z,30.70
2018-09-11T12:35:38.815Z,30.10
2018-09-11T12:38:07.215Z,30.90
2018-09-11T12:40:35.638Z,31.20
2018-09-11T12:43:04.033Z,30.70
2018-09-11T12:45:32.460Z,30.10
2018-09-11T12:48:01.237Z,30.00
2018-09-11T12:50:29.329Z,30.60
2018-09-11T12:52:57.774Z,31.10
2018-09-11T12:55:26.194Z,30.50
2018-09-11T12:57:54.604Z,31.20
2018-09-11T13:00:23.043Z,31.50
2018-09-11T13:02:51.471Z,31.90
2018-09-11T13:05:19.922Z,32.50
2018-09-11T13:07:48.333Z,32.20
2018-09-11T13:10:16.820Z,31.50
2018-09-11T13:12:45.269Z,31.90
2018-09-11T13:15:13.803Z,33.40
2018-09-11T13:17:42.164Z,35.60
2018-09-11T13:20:10.638Z,34.80
2018-09-11T13:22:39.069Z,33.00
2018-09-11T13:25:07.601Z,30.70
2018-09-11T13:27:36.090Z,30.70
2018-09-11T13:30:04.653Z,32.40
2018-09-11T13:32:33.081Z,32.30
2018-09-11T13:35:01.567Z,33.00
2018-09-11T13:37:30.004Z,33.30
2018-09-11T13:39:58.472Z,33.10
2018-09-11T13:42:26.882Z,34.10
2018-09-11T13:44:55.333Z,33.20
2018-09-11T13:47:23.878Z,33.30
2018-09-11T13:49:52.230Z,33.40
2018-09-11T13:52:20.735Z,32.80
2018-09-11T13:54:49.191Z,33.90
2018-09-11T13:57:17.626Z,32.70
2018-09-11T13:59:46.083Z,31.90
2018-09-11T14:02:14.505Z,32.00
2018-09-11T14:04:42.953Z,31.40
2018-09-11T14:07:11.400Z,31.30
2018-09-11T14:09:39.882Z,30.50
2018-09-11T14:12:08.346Z,30.50
2018-09-11T14:14:36.834Z,30.60
2018-09-11T14:17:05.303Z,30.10
2018-09-11T14:19:33.737Z,30.00
2018-09-11T14:22:02.190Z,30.40
2018-09-11T14:24:30.646Z,30.40
2018-09-11T14:26:59.083Z,30.80
2018-09-11T14:29:27.542Z,31.10
2018-09-11T14:31:56.018Z,31.30
2018-09-11T14:34:24.536Z,30.80
2018-09-11T14:36:52.912Z,30.40
2018-09-11T14:39:21.366Z,30.20
2018-09-11T14:41:49.805Z,30.50
2018-09-11T14:44:18.261Z,29.70
2018-09-11T14:46:46.706Z,29.50
2018-09-11T14:49:15.125Z,29.40
2018-09-11T14:51:43.604Z,30.00
2018-09-11T14:54:12.034Z,29.90
2018-09-11T14:56:40.473Z,30.20
2018-09-11T14:59:08.907Z,30.20
2018-09-11T15:01:37.381Z,30.40
2018-09-11T15:04:06.104Z,30.50
2018-09-11T15:06:34.505Z,30.00
2018-09-11T15:09:03.009Z,29.50
2018-09-11T15:11:31.476Z,29.70
2018-09-11T15:13:59.877Z,30.20
2018-09-11T15:16:28.330Z,29.90
2018-09-11T15:18:56.749Z,30.10
2018-09-11T15:21:25.209Z,29.90
2018-09-11T15:23:53.651Z,28.80
2018-09-11T15:26:22.093Z,28.30
2018-09-11T15:28:50.525Z,28.00
2018-09-11T15:31:18.973Z,27.60
2018-09-11T15:33:47.421Z,27.40
2018-09-11T15:36:15.874Z,27.30
2018-09-11T15:38:44.346Z,27.10
2018-09-11T15:41:12.786Z,26.90
2018-09-11T15:43:41.189Z,26.80
2018-09-11T15:46:09.639Z,26.70
2018-09-11T15:48:38.080Z,26.50
2018-09-11T15:51:06.311Z,26.40
2018-09-11T15:53:34.714Z,26.40
2018-09-11T15:56:03.139Z,26.20
2018-09-11T15:58:31.543Z,26.20
2018-09-11T16:00:59.974Z,26.10
2018-09-11T16:03:28.385Z,26.00
2018-09-11T16:05:56.828Z,26.00
2018-09-11T16:08:25.233Z,25.90
2018-09-11T16:10:53.674Z,25.90
2018-09-11T16:13:22.081Z,25.80
2018-09-11T16:15:50.507Z,25.80
2018-09-11T16:18:18.892Z,25.70
2018-09-11T16:20:47.333Z,25.60
2018-09-11T16:23:15.730Z,25.60
2018-09-11T16:25:44.141Z,25.60
2018-09-11T16:28:12.546Z,25.60
2018-09-11T16:30:40.951Z,25.50
2018-09-11T16:33:09.354Z,25.40
2018-09-11T16:35:37.769Z,25.30
2018-09-11T16:38:06.240Z,25.30
2018-09-11T16:40:34.666Z,25.30
2018-09-11T16:43:03.069Z,25.10
2018-09-11T16:45:31.483Z,25.10
2018-09-11T16:47:59.870Z,25.10
2018-09-11T16:50:28.369Z,25.00
2018-09-11T16:52:56.758Z,25.00
2018-09-11T16:55:25.169Z,24.90
2018-09-11T16:57:53.554Z,24.70
2018-09-11T17:00:21.962Z,24.60
2018-09-11T17:02:50.371Z,24.60
2018-09-11T17:05:18.766Z,24.50
2018-09-11T17:07:47.174Z,24.50
2018-09-11T17:10:15.589Z,24.40
2018-09-11T17:12:44.541Z,24.20
2018-09-11T17:15:12.965Z,24.00
2018-09-11T17:17:41.396Z,23.90
2018-09-11T17:20:09.809Z,23.90
2018-09-11T17:22:38.220Z,23.80
2018-09-11T17:25:06.640Z,23.80
2018-09-11T17:27:35.098Z,23.70
2018-09-11T17:30:03.533Z,23.50
2018-09-11T17:32:31.939Z,23.40
2018-09-11T17:35:00.352Z,23.20
2018-09-11T17:37:28.749Z,23.00
2018-09-11T17:39:57.141Z,22.90
2018-09-11T17:42:25.572Z,22.80
2018-09-11T17:44:53.958Z,22.60
2018-09-11T17:47:22.361Z,22.60
2018-09-11T17:49:50.770Z,22.50
2018-09-11T17:52:19.222Z,22.30
2018-09-11T17:54:47.642Z,22.10
2018-09-11T17:57:16.061Z,21.90
2018-09-11T17:59:44.463Z,21.80
2018-09-11T18:02:12.922Z,21.60
2018-09-11T18:04:41.348Z,21.60
2018-09-11T18:07:09.785Z,21.40
2018-09-11T18:09:38.210Z,21.30
2018-09-11T18:12:06.774Z,21.20
2018-09-11T18:14:35.197Z,21.00
2018-09-11T18:17:03.630Z,20.90
2018-09-11T18:19:32.034Z,20.80
2018-09-11T18:22:00.463Z,20.70
2018-09-11T18:24:28.881Z,20.60
2018-09-11T18:26:57.353Z,20.50
2018-09-11T18:29:26.085Z,20.30
2018-09-11T18:31:54.612Z,20.20
2018-09-11T18:34:23.041Z,20.10
2018-09-11T18:36:51.574Z,20.10
2018-09-11T18:39:20.022Z,19.90
2018-09-11T18:41:48.430Z,19.80
2018-09-11T18:44:16.863Z,19.80
2018-09-11T18:46:45.290Z,19.70
2018-09-11T18:49:13.726Z,19.60
2018-09-11T18:51:42.234Z,19.60
2018-09-11T18:54:10.687Z,19.50
2018-09-11T18:56:39.101Z,19.40
2018-09-11T18:59:07.568Z,19.20
2018-09-11T19:01:35.972Z,19.20
2018-09-11T19:04:04.441Z,19.10
2018-09-11T19:06:32.854Z,19.00
2018-09-11T19:09:01.286Z,18.90
2018-09-11T19:11:29.722Z,18.80
2018-09-11T19:13:58.154Z,18.80
2018-09-11T19:16:26.553Z,18.70
2018-09-11T19:18:54.969Z,18.60
2018-09-11T19:21:23.378Z,18.50
2018-09-11T19:23:51.818Z,18.40
2018-09-11T19:26:20.249Z,18.20
2018-09-11T19:28:48.729Z,18.20
2018-09-11T19:31:17.121Z,18.10
2018-09-11T19:33:45.547Z,18.10
2018-09-11T19:36:13.961Z,18.10
2018-09-11T19:38:42.398Z,18.00
2018-09-11T19:41:10.827Z,18.00
2018-09-11T19:43:40.647Z,17.90
2018-09-11T19:46:09.057Z,17.80
2018-09-11T19:48:37.535Z,17.70
2018-09-11T19:51:05.982Z,17.70
2018-09-11T19:53:34.441Z,17.60
2018-09-11T19:56:02.878Z,17.60
2018-09-11T19:58:31.336Z,17.50
2018-09-11T20:00:59.766Z,17.50
2018-09-11T20:03:28.213Z,17.40
2018-09-11T20:05:56.646Z,17.30
2018-09-11T20:08:25.099Z,17.20
2018-09-11T20:10:53.580Z,17.20
2018-09-11T20:13:22.033Z,17.10
2018-09-11T20:15:50.466Z,17.10
2018-09-11T20:18:18.956Z,17.10
2018-09-11T20:20:47.428Z,17.00
2018-09-11T20:23:15.878Z,16.90
2018-09-11T20:25:44.562Z,16.80
2018-09-11T20:28:13.001Z,16.80
2018-09-11T20:30:41.459Z,16.80
2018-09-11T20:33:09.915Z,16.70
2018-09-11T20:35:38.379Z,16.60
2018-09-11T20:38:06.833Z,16.50
2018-09-11T20:40:35.304Z,16.50
2018-09-11T20:43:03.746Z,16.50
2018-09-11T20:45:32.197Z,16.50
2018-09-11T20:48:00.648Z,16.50
2018-09-11T20:50:29.154Z,16.50
2018-09-11T20:52:57.614Z,16.50
2018-09-11T20:55:26.075Z,16.50
2018-09-11T20:57:54.515Z,16.40
2018-09-11T21:00:22.959Z,16.40
2018-09-11T21:02:51.417Z,16.40
2018-09-11T21:05:19.893Z,16.30
2018-09-11T21:07:48.318Z,16.20
2018-09-11T21:10:16.850Z,16.20
2018-09-11T21:12:45.513Z,16.10
2018-09-11T21:15:14.003Z,16.00
2018-09-11T21:17:42.504Z,16.00
2018-09-11T21:20:10.966Z,15.90
2018-09-11T21:22:39.378Z,15.80
2018-09-11T21:25:07.870Z,15.80
2018-09-11T21:27:36.297Z,15.80
2018-09-11T21:30:05.014Z,15.70
2018-09-11T21:32:33.464Z,15.70
2018-09-11T21:35:01.917Z,15.70
2018-09-11T21:37:30.348Z,15.60
2018-09-11T21:39:58.821Z,15.60
2018-09-11T21:42:27.257Z,15.60
2018-09-11T21:44:55.710Z,15.60
2018-09-11T21:47:24.181Z,15.50
2018-09-11T21:49:52.753Z,15.60
2018-09-11T21:52:21.204Z,15.50
2018-09-11T21:54:49.625Z,15.50
2018-09-11T21:57:18.062Z,15.50
2018-09-11T21:59:46.474Z,15.40
2018-09-11T22:02:14.905Z,15.40
2018-09-11T22:04:43.325Z,15.30
2018-09-11T22:07:11.765Z,15.30
2018-09-11T22:09:40.247Z,15.30
2018-09-11T22:12:08.737Z,15.20
2018-09-11T22:14:37.147Z,15.20
2018-09-11T22:17:05.801Z,15.10
2018-09-11T22:19:34.218Z,15.10
2018-09-11T22:22:02.670Z,15.00
2018-09-11T22:24:31.089Z,15.00
2018-09-11T22:26:59.494Z,14.90
2018-09-11T22:29:27.930Z,14.80
2018-09-11T22:31:56.341Z,14.80
2018-09-11T22:34:24.777Z,14.80
2018-09-11T22:36:53.193Z,14.80
2018-09-11T22:39:21.656Z,14.80
2018-09-11T22:41:50.118Z,14.70
2018-09-11T22:44:18.562Z,14.70
2018-09-11T22:46:47.002Z,14.60
2018-09-11T22:49:15.454Z,14.60
2018-09-11T22:51:43.845Z,14.50
2018-09-11T22:54:12.273Z,14.50
2018-09-11T22:56:40.682Z,14.50
2018-09-11T22:59:09.133Z,14.50
2018-09-11T23:01:37.539Z,14.40
2018-09-11T23:04:05.986Z,14.40
2018-09-11T23:06:34.526Z,14.40
2018-09-11T23:09:03.042Z,14.40
2018-09-11T23:11:31.530Z,14.30
2018-09-11T23:13:59.973Z,14.30
2018-09-11T23:16:28.397Z,14.30
2018-09-11T23:18:56.844Z,14.20
2018-09-11T23:21:25.269Z,14.20
2018-09-11T23:23:53.718Z,14.20
2018-09-11T23:26:22.186Z,14.10
2018-09-11T23:28:50.622Z,14.00
2018-09-11T23:31:19.054Z,14.00
2018-09-11T23:33:47.498Z,13.90
2018-09-11T23:36:15.914Z,13.90
2018-09-11T23:38:44.355Z,13.90
2018-09-11T23:41:12.813Z,13.90
2018-09-11T23:43:41.245Z,13.90
2018-09-11T23:46:09.658Z,13.90
2018-09-11T23:48:38.105Z,13.90
2018-09-11T23:51:06.539Z,13.90
2018-09-11T23:53:34.990Z,13.80
2018-09-11T23:56:03.406Z,13.80
2018-09-11T23:58:31.859Z,13.90
